Terminal Aerodrome Forecast
Issued by NWS

Home | Current Version | Previous Version | Text Only | Print | Product List | Glossary On
Versions: 1 2 3 4 5 6 7 8 9 10 11 12 13 14 15 16 17 18 19 20 21 22 23 24 25 26 27 28 29 30 31
000
FTUS44 KHGX 232332
TAFUTS
TAF
KUTS 232332Z 2400/2424 31006KT P6SM VCSH SCT060
      TEMPO 2400/2402 -TSRA BKN035CB
     FM240200 32008KT P6SM BKN040
     FM240500 31006KT P6SM SCT250
     FM241700 31012G20KT P6SM FEW070=

USA.gov is the U.S. government's official web portal to all federal, state and local government web resources and services.